createdAt,value
2018-09-29T00:00:49.084Z,6.60
2018-09-29T00:03:17.557Z,6.50
2018-09-29T00:07:10.579Z,6.50
2018-09-29T00:09:39.033Z,6.50
2018-09-29T00:12:07.454Z,6.50
2018-09-29T00:14:35.922Z,6.50
2018-09-29T00:17:04.370Z,6.60
2018-09-29T00:19:32.792Z,6.50
2018-09-29T00:22:01.271Z,6.50
2018-09-29T00:24:29.718Z,6.40
2018-09-29T00:26:58.162Z,6.30
2018-09-29T00:29:26.586Z,6.30
2018-09-29T00:31:55.061Z,6.20
2018-09-29T00:34:23.544Z,6.20
2018-09-29T00:36:51.967Z,6.20
2018-09-29T00:39:20.425Z,6.10
2018-09-29T00:41:48.890Z,6.00
2018-09-29T00:44:17.349Z,6.00
2018-09-29T00:46:45.815Z,5.90
2018-09-29T00:49:14.267Z,5.90
2018-09-29T00:51:42.730Z,5.90
2018-09-29T00:54:11.182Z,5.90
2018-09-29T00:56:39.598Z,5.90
2018-09-29T00:59:08.038Z,5.90
2018-09-29T01:01:36.476Z,5.90
2018-09-29T01:04:04.946Z,5.90
2018-09-29T01:08:02.575Z,5.80
2018-09-29T01:10:31.045Z,5.80
2018-09-29T01:12:59.519Z,5.80
2018-09-29T01:15:27.970Z,5.80
2018-09-29T01:17:56.396Z,5.70
2018-09-29T01:20:24.855Z,5.70
2018-09-29T01:22:53.283Z,5.70
2018-09-29T01:25:21.770Z,5.60
2018-09-29T01:27:50.199Z,5.60
2018-09-29T01:30:18.830Z,5.60
2018-09-29T01:32:47.235Z,5.60
2018-09-29T01:35:16.040Z,5.60
2018-09-29T01:37:44.462Z,5.60
2018-09-29T01:40:13.271Z,5.60
2018-09-29T01:42:41.704Z,5.60
2018-09-29T01:45:10.375Z,5.60
2018-09-29T01:47:38.779Z,5.60
2018-09-29T01:50:07.236Z,5.60
2018-09-29T01:52:35.654Z,5.60
2018-09-29T01:55:04.546Z,5.60
2018-09-29T01:57:33.040Z,5.60
2018-09-29T02:00:01.855Z,5.70
2018-09-29T02:02:30.294Z,5.70
2018-09-29T02:04:58.727Z,5.70
2018-09-29T02:07:27.187Z,5.80
2018-09-29T02:09:55.622Z,5.80
2018-09-29T02:12:24.042Z,5.80
2018-09-29T02:14:52.481Z,5.70
2018-09-29T02:17:20.909Z,5.70
2018-09-29T02:19:49.357Z,5.60
2018-09-29T02:22:18.443Z,5.50
2018-09-29T02:24:46.939Z,5.40
2018-09-29T02:27:15.380Z,5.40
2018-09-29T02:29:43.838Z,5.30
2018-09-29T02:32:12.253Z,5.30
2018-09-29T02:34:40.694Z,5.30
2018-09-29T02:37:09.127Z,5.30
2018-09-29T02:39:37.594Z,5.30
2018-09-29T02:42:06.056Z,5.20
2018-09-29T02:44:34.489Z,5.20
2018-09-29T02:47:02.956Z,5.10
2018-09-29T02:49:31.415Z,5.10
2018-09-29T02:51:59.868Z,5.20
2018-09-29T02:54:28.343Z,5.10
2018-09-29T02:56:56.802Z,5.10
2018-09-29T02:59:25.327Z,5.10
2018-09-29T03:01:53.779Z,5.10
2018-09-29T03:04:22.206Z,5.00
2018-09-29T03:06:50.655Z,5.00
2018-09-29T03:09:19.085Z,5.10
2018-09-29T03:11:47.559Z,5.00
2018-09-29T03:14:15.995Z,4.90
2018-09-29T03:16:44.443Z,4.90
2018-09-29T03:19:12.952Z,4.90
2018-09-29T03:21:41.538Z,4.90
2018-09-29T03:24:09.970Z,5.00
2018-09-29T03:26:38.427Z,4.90
2018-09-29T03:29:06.845Z,4.90
2018-09-29T03:31:35.366Z,4.80
2018-09-29T03:34:03.931Z,4.80
2018-09-29T03:36:32.387Z,4.80
2018-09-29T03:39:00.829Z,4.70
2018-09-29T03:41:29.311Z,4.70
2018-09-29T03:43:57.735Z,4.70
2018-09-29T03:46:26.180Z,4.70
2018-09-29T03:48:54.600Z,4.70
2018-09-29T03:51:23.042Z,4.70
2018-09-29T03:53:51.460Z,4.80
2018-09-29T03:56:19.895Z,4.70
2018-09-29T03:58:48.360Z,4.70
2018-09-29T04:01:16.780Z,4.60
2018-09-29T04:03:45.230Z,4.70
2018-09-29T04:06:13.654Z,4.70
2018-09-29T04:08:42.100Z,4.70
2018-09-29T04:11:10.542Z,4.70
2018-09-29T04:13:39.051Z,4.70
2018-09-29T04:16:07.688Z,4.70
2018-09-29T04:18:36.183Z,4.70
2018-09-29T04:21:04.725Z,4.70
2018-09-29T04:23:33.163Z,4.70
2018-09-29T04:26:01.576Z,4.70
2018-09-29T04:28:30.034Z,4.70
2018-09-29T04:30:58.479Z,4.70
2018-09-29T04:33:26.975Z,4.70
2018-09-29T04:35:55.395Z,4.70
2018-09-29T04:38:23.849Z,4.70
2018-09-29T04:40:52.259Z,4.70
2018-09-29T04:43:20.753Z,4.60
2018-09-29T04:45:49.333Z,4.60
2018-09-29T04:48:17.896Z,4.60
2018-09-29T04:50:46.356Z,4.60
2018-09-29T04:53:14.799Z,4.50
2018-09-29T04:55:43.230Z,4.50
2018-09-29T04:58:11.675Z,4.40
2018-09-29T05:00:40.135Z,4.50
2018-09-29T05:03:08.555Z,4.50
2018-09-29T05:05:36.995Z,4.50
2018-09-29T05:08:06.117Z,4.40
2018-09-29T05:10:34.565Z,4.40
2018-09-29T05:13:02.986Z,4.50
2018-09-29T05:15:31.435Z,4.50
2018-09-29T05:17:59.900Z,4.50
2018-09-29T05:20:28.339Z,4.50
2018-09-29T05:22:56.772Z,4.50
2018-09-29T05:25:25.234Z,4.50
2018-09-29T05:27:53.664Z,4.50
2018-09-29T05:30:22.334Z,4.40
2018-09-29T05:32:50.806Z,4.40
2018-09-29T05:36:21.619Z,4.40
2018-09-29T05:38:50.032Z,4.40
2018-09-29T05:41:18.470Z,4.40
2018-09-29T05:43:46.877Z,4.40
2018-09-29T05:46:15.306Z,4.50
2018-09-29T05:48:43.722Z,4.50
2018-09-29T05:51:12.190Z,4.50
2018-09-29T05:53:40.626Z,4.50
2018-09-29T05:56:09.059Z,4.50
2018-09-29T05:58:37.488Z,4.60
2018-09-29T06:01:05.942Z,4.70
2018-09-29T06:03:34.398Z,4.80
2018-09-29T06:06:02.850Z,4.80
2018-09-29T06:08:31.278Z,4.90
2018-09-29T06:10:59.711Z,4.90
2018-09-29T06:13:28.143Z,5.00
2018-09-29T06:15:56.585Z,5.10
2018-09-29T06:18:24.988Z,5.10
2018-09-29T06:20:53.466Z,5.20
2018-09-29T06:23:22.026Z,5.30
2018-09-29T06:25:50.506Z,5.40
2018-09-29T06:28:18.946Z,5.50
2018-09-29T06:30:47.792Z,5.60
2018-09-29T06:33:16.231Z,5.80
2018-09-29T06:35:44.700Z,5.80
2018-09-29T06:38:13.215Z,5.90
2018-09-29T06:40:41.841Z,5.90
2018-09-29T06:43:10.443Z,6.00
2018-09-29T06:45:38.870Z,6.10
2018-09-29T06:48:07.405Z,6.20
2018-09-29T06:50:35.975Z,6.30
2018-09-29T06:53:04.774Z,6.40
2018-09-29T06:55:33.191Z,6.50
2018-09-29T06:58:01.679Z,6.60
2018-09-29T07:00:30.113Z,6.70
2018-09-29T07:02:58.593Z,6.80
2018-09-29T07:05:27.588Z,6.90
2018-09-29T07:07:56.041Z,7.00
2018-09-29T07:10:24.470Z,7.20
2018-09-29T07:12:52.964Z,7.30
2018-09-29T07:15:21.544Z,7.30
2018-09-29T07:17:49.983Z,7.50
2018-09-29T07:20:18.408Z,7.60
2018-09-29T07:22:46.847Z,7.70
2018-09-29T07:25:15.316Z,7.80
2018-09-29T07:27:43.943Z,8.00
2018-09-29T07:30:14.482Z,8.10
2018-09-29T07:32:42.929Z,8.30
2018-09-29T07:35:11.400Z,8.40
2018-09-29T07:37:39.830Z,8.50
2018-09-29T07:40:08.627Z,8.60
2018-09-29T07:42:37.066Z,8.70
2018-09-29T07:45:05.648Z,8.80
2018-09-29T07:47:34.058Z,8.80
2018-09-29T07:50:02.644Z,8.90
2018-09-29T07:52:32.407Z,9.00
2018-09-29T07:55:00.864Z,9.10
2018-09-29T07:57:29.460Z,9.20
2018-09-29T07:59:57.935Z,9.20
2018-09-29T08:02:26.362Z,9.30
2018-09-29T08:04:54.851Z,9.50
2018-09-29T08:07:23.279Z,9.60
2018-09-29T08:09:51.731Z,9.70
2018-09-29T08:12:20.241Z,9.90
2018-09-29T08:14:48.822Z,10.00
2018-09-29T08:17:17.332Z,10.10
2018-09-29T08:19:45.846Z,10.30
2018-09-29T08:22:14.721Z,10.40
2018-09-29T08:24:43.256Z,10.50
2018-09-29T08:27:11.706Z,10.50
2018-09-29T08:29:40.172Z,10.70
2018-09-29T08:32:08.857Z,10.80
2018-09-29T08:34:37.498Z,10.80
2018-09-29T08:37:05.981Z,10.90
2018-09-29T08:39:34.446Z,11.00
2018-09-29T08:42:02.972Z,11.10
2018-09-29T08:44:31.503Z,11.30
2018-09-29T08:47:00.016Z,11.40
2018-09-29T08:49:28.784Z,11.50
2018-09-29T08:51:57.267Z,11.60
2018-09-29T08:54:25.723Z,11.70
2018-09-29T08:56:54.191Z,11.80
2018-09-29T08:59:22.668Z,11.90
2018-09-29T09:01:51.146Z,12.00
2018-09-29T09:04:19.586Z,12.10
2018-09-29T09:06:48.081Z,12.20
2018-09-29T09:09:16.964Z,12.30
2018-09-29T09:11:45.562Z,12.50
2018-09-29T09:14:13.986Z,12.50
2018-09-29T09:16:42.484Z,12.50
2018-09-29T09:19:11.194Z,12.60
2018-09-29T09:21:39.643Z,12.70
2018-09-29T09:24:08.160Z,12.70
2018-09-29T09:26:36.747Z,12.80
2018-09-29T09:29:05.588Z,12.90
2018-09-29T09:31:34.029Z,12.90
2018-09-29T09:34:02.608Z,13.10
2018-09-29T09:36:31.092Z,13.10
2018-09-29T09:38:59.604Z,13.20
2018-09-29T09:41:28.055Z,13.20
2018-09-29T09:43:57.732Z,13.30
2018-09-29T09:46:26.731Z,13.40
2018-09-29T09:48:55.648Z,13.40
2018-09-29T09:51:24.426Z,13.30
2018-09-29T09:53:53.920Z,13.30
2018-09-29T09:56:23.273Z,13.40
2018-09-29T09:58:52.083Z,13.40
2018-09-29T10:01:27.750Z,13.60
2018-09-29T10:03:56.911Z,13.70
2018-09-29T10:06:25.427Z,13.80
2018-09-29T10:08:54.166Z,13.80
2018-09-29T10:11:22.683Z,14.00
2018-09-29T10:13:51.484Z,14.10
2018-09-29T10:16:22.747Z,14.10
2018-09-29T10:18:53.280Z,14.10
2018-09-29T10:21:22.903Z,14.00
2018-09-29T10:23:55.453Z,13.80
2018-09-29T10:26:23.918Z,13.70
2018-09-29T10:28:52.357Z,13.70
2018-09-29T10:31:20.813Z,13.80
2018-09-29T10:33:49.244Z,13.90
2018-09-29T10:36:17.719Z,14.00
2018-09-29T10:38:47.044Z,14.10
2018-09-29T10:41:16.337Z,14.10
2018-09-29T10:43:44.890Z,14.20
2018-09-29T10:46:13.325Z,14.20
2018-09-29T10:48:41.827Z,14.20
2018-09-29T10:51:10.288Z,14.20
2018-09-29T10:53:38.775Z,14.20
2018-09-29T10:56:07.362Z,14.30
2018-09-29T10:58:35.830Z,14.30
2018-09-29T11:01:04.307Z,14.40
2018-09-29T11:03:33.225Z,14.50
2018-09-29T11:06:01.666Z,14.50
2018-09-29T11:08:30.127Z,14.60
2018-09-29T11:10:58.555Z,14.50
2018-09-29T11:13:27.044Z,14.40
2018-09-29T11:15:55.549Z,14.40
2018-09-29T11:18:24.016Z,14.40
2018-09-29T11:20:52.454Z,14.40
2018-09-29T11:23:21.094Z,14.40
2018-09-29T11:25:49.558Z,14.40
2018-09-29T11:28:18.074Z,14.40
2018-09-29T11:30:46.671Z,14.50
2018-09-29T11:33:15.128Z,14.50
2018-09-29T11:35:43.570Z,14.50
2018-09-29T11:38:12.075Z,14.40
2018-09-29T11:40:40.636Z,14.30
2018-09-29T11:43:09.355Z,14.40
2018-09-29T11:45:38.966Z,14.40
2018-09-29T11:48:07.506Z,14.40
2018-09-29T11:50:36.085Z,14.40
2018-09-29T11:53:04.515Z,14.30
2018-09-29T11:55:33.473Z,14.40
2018-09-29T11:58:01.910Z,14.40
2018-09-29T12:00:30.743Z,14.40
2018-09-29T12:02:59.181Z,14.30
2018-09-29T12:05:27.642Z,14.30
2018-09-29T12:07:56.113Z,14.40
2018-09-29T12:10:24.564Z,14.50
2018-09-29T12:12:53.167Z,14.60
2018-09-29T12:15:21.623Z,14.70
2018-09-29T12:17:50.151Z,14.60
2018-09-29T12:20:18.916Z,14.50
2018-09-29T12:22:47.378Z,14.60
2018-09-29T12:25:15.835Z,14.50
2018-09-29T12:27:45.964Z,14.60
2018-09-29T12:30:14.784Z,14.70
2018-09-29T12:32:43.258Z,14.80
2018-09-29T12:35:13.807Z,14.70
2018-09-29T12:37:42.300Z,14.80
2018-09-29T12:40:10.963Z,14.80
2018-09-29T12:42:39.427Z,14.80
2018-09-29T12:45:08.251Z,14.70
2018-09-29T12:47:36.806Z,14.60
2018-09-29T12:50:06.222Z,14.50
2018-09-29T12:52:34.918Z,14.50
2018-09-29T12:55:03.383Z,14.50
2018-09-29T12:57:32.426Z,14.50
2018-09-29T13:00:00.894Z,14.40
2018-09-29T13:02:29.408Z,14.40
2018-09-29T13:04:57.883Z,14.30
2018-09-29T13:07:26.386Z,14.30
2018-09-29T13:09:54.843Z,14.40
2018-09-29T13:12:23.302Z,14.30
2018-09-29T13:14:51.778Z,14.40
2018-09-29T13:17:20.263Z,14.40
2018-09-29T13:19:48.722Z,14.40
2018-09-29T13:22:17.188Z,14.40
2018-09-29T13:24:45.666Z,14.30
2018-09-29T13:27:14.137Z,14.40
2018-09-29T13:29:42.668Z,14.50
2018-09-29T13:32:11.604Z,14.50
2018-09-29T13:34:40.077Z,14.50
2018-09-29T13:37:11.068Z,14.60
2018-09-29T13:39:40.303Z,14.50
2018-09-29T13:42:16.729Z,14.50
2018-09-29T13:44:45.204Z,14.50
2018-09-29T13:47:13.667Z,14.50
2018-09-29T13:49:42.150Z,14.50
2018-09-29T13:52:11.335Z,14.60
2018-09-29T13:54:39.837Z,14.50
2018-09-29T13:57:08.302Z,14.40
2018-09-29T13:59:36.873Z,14.50
2018-09-29T14:02:05.435Z,14.50
2018-09-29T14:04:34.110Z,14.40
2018-09-29T14:07:02.615Z,14.40
2018-09-29T14:09:31.189Z,14.40
2018-09-29T14:11:59.745Z,14.40
2018-09-29T14:14:28.225Z,14.40
2018-09-29T14:16:56.695Z,14.40
2018-09-29T14:19:25.204Z,14.50
2018-09-29T14:21:53.688Z,14.60
2018-09-29T14:24:22.222Z,14.50
2018-09-29T14:26:50.703Z,14.40
2018-09-29T14:29:19.185Z,14.40
2018-09-29T14:31:47.663Z,14.40
2018-09-29T14:34:16.118Z,14.40
2018-09-29T14:36:44.615Z,14.40
2018-09-29T14:39:13.116Z,14.40
2018-09-29T14:41:41.631Z,14.40
2018-09-29T14:44:10.752Z,14.40
2018-09-29T14:46:39.243Z,14.40
2018-09-29T14:49:07.696Z,14.40
2018-09-29T14:51:36.189Z,14.40
2018-09-29T14:54:04.758Z,14.40
2018-09-29T14:56:33.362Z,14.40
2018-09-29T14:59:01.881Z,14.30
2018-09-29T15:01:30.440Z,14.30
2018-09-29T15:03:58.957Z,14.30
2018-09-29T15:06:27.637Z,14.40
2018-09-29T15:08:56.135Z,14.30
2018-09-29T15:11:24.627Z,14.20
2018-09-29T15:13:53.219Z,14.20
2018-09-29T15:16:21.738Z,14.20
2018-09-29T15:18:50.224Z,14.20
2018-09-29T15:21:18.753Z,14.20
2018-09-29T15:23:47.279Z,14.20
2018-09-29T15:26:16.029Z,14.10
2018-09-29T15:28:44.492Z,14.10
2018-09-29T15:31:13.011Z,14.10
2018-09-29T15:33:41.484Z,14.10
2018-09-29T15:36:09.964Z,14.00
2018-09-29T15:38:38.455Z,13.90
2018-09-29T15:41:06.939Z,13.90
2018-09-29T15:43:35.443Z,13.90
2018-09-29T15:46:03.932Z,13.90
2018-09-29T15:48:32.497Z,13.80
2018-09-29T15:51:01.148Z,13.80
2018-09-29T15:53:29.659Z,13.70
2018-09-29T15:55:58.145Z,13.60
2018-09-29T15:58:26.665Z,13.60
2018-09-29T16:00:55.158Z,13.50
2018-09-29T16:03:23.655Z,13.50
2018-09-29T16:05:52.112Z,13.50
2018-09-29T16:08:21.027Z,13.40
2018-09-29T16:10:49.512Z,13.30
2018-09-29T16:13:17.990Z,13.20
2018-09-29T16:15:46.474Z,13.10
2018-09-29T16:18:15.048Z,13.10
2018-09-29T16:20:43.537Z,13.00
2018-09-29T16:23:12.053Z,12.90
2018-09-29T16:25:40.574Z,12.80
2018-09-29T16:28:09.063Z,12.70
2018-09-29T16:30:37.579Z,12.70
2018-09-29T16:33:06.095Z,12.60
2018-09-29T16:35:34.569Z,12.40
2018-09-29T16:38:03.064Z,12.40
2018-09-29T16:40:31.804Z,12.20
2018-09-29T16:43:00.277Z,12.10
2018-09-29T16:45:28.806Z,12.00
2018-09-29T16:47:57.246Z,11.90
2018-09-29T16:50:25.735Z,11.80
2018-09-29T16:52:54.191Z,11.80
2018-09-29T16:55:22.726Z,11.70
2018-09-29T16:57:51.206Z,11.60
2018-09-29T17:00:20.064Z,11.50
2018-09-29T17:02:48.513Z,11.40
2018-09-29T17:05:17.046Z,11.30
2018-09-29T17:07:45.502Z,11.20
2018-09-29T17:10:13.962Z,11.10
2018-09-29T17:12:42.441Z,11.10
2018-09-29T17:15:10.926Z,11.00
2018-09-29T17:17:39.378Z,10.90
2018-09-29T17:20:07.831Z,10.90
2018-09-29T17:22:36.323Z,10.80
2018-09-29T17:25:09.876Z,10.80
2018-09-29T17:27:38.451Z,10.70
2018-09-29T17:30:07.303Z,10.70
2018-09-29T17:32:35.795Z,10.60
2018-09-29T17:35:04.393Z,10.50
2018-09-29T17:37:32.926Z,10.50
2018-09-29T17:40:01.499Z,10.40
2018-09-29T17:42:30.594Z,10.40
2018-09-29T17:44:59.130Z,10.40
2018-09-29T17:47:27.998Z,10.30
2018-09-29T17:49:56.466Z,10.30
2018-09-29T17:52:25.184Z,10.30
2018-09-29T17:54:53.849Z,10.20
2018-09-29T17:57:22.339Z,10.20
2018-09-29T17:59:50.795Z,10.10
2018-09-29T18:02:19.281Z,10.10
2018-09-29T18:04:47.743Z,10.00
2018-09-29T18:07:16.223Z,9.90
2018-09-29T18:09:44.678Z,9.90
2018-09-29T18:12:13.146Z,9.90
2018-09-29T18:14:41.624Z,9.90
2018-09-29T18:17:10.083Z,9.80
2018-09-29T18:19:38.711Z,9.80
2018-09-29T18:22:07.219Z,9.80
2018-09-29T18:24:35.695Z,9.70
2018-09-29T18:27:04.514Z,9.70
2018-09-29T18:29:33.019Z,9.60
2018-09-29T18:32:01.506Z,9.60
2018-09-29T18:34:29.979Z,9.50
2018-09-29T18:36:58.451Z,9.50
2018-09-29T18:39:26.955Z,9.50
2018-09-29T18:41:55.431Z,9.40
2018-09-29T18:44:25.685Z,9.40
2018-09-29T18:46:54.158Z,9.30
2018-09-29T18:49:22.675Z,9.30
2018-09-29T18:51:51.226Z,9.20
2018-09-29T18:54:19.827Z,9.20
2018-09-29T18:56:48.302Z,9.20
2018-09-29T18:59:16.786Z,9.10
2018-09-29T19:01:45.282Z,9.00
2018-09-29T19:04:13.804Z,9.00
2018-09-29T19:06:42.267Z,8.90
2018-09-29T19:09:12.378Z,8.90
2018-09-29T19:11:41.663Z,8.80
2018-09-29T19:14:10.102Z,8.80
2018-09-29T19:16:38.611Z,8.70
2018-09-29T19:19:07.619Z,8.70
2018-09-29T19:21:36.131Z,8.70
2018-09-29T19:24:05.087Z,8.70
2018-09-29T19:26:33.586Z,8.70
2018-09-29T19:29:02.235Z,8.60
2018-09-29T19:31:30.702Z,8.60
2018-09-29T19:33:59.516Z,8.60
2018-09-29T19:36:27.974Z,8.60
2018-09-29T19:38:56.453Z,8.50
2018-09-29T19:41:24.943Z,8.50
2018-09-29T19:43:53.432Z,8.40
2018-09-29T19:46:21.920Z,8.30
2018-09-29T19:48:50.413Z,8.20
2018-09-29T19:51:18.917Z,8.20
2018-09-29T19:53:47.566Z,8.10
2018-09-29T19:56:16.115Z,8.20
2018-09-29T19:58:45.155Z,8.20
2018-09-29T20:01:13.640Z,8.20
2018-09-29T20:03:42.167Z,8.20
2018-09-29T20:06:10.775Z,8.20
2018-09-29T20:08:39.279Z,8.20
2018-09-29T20:11:07.763Z,8.10
2018-09-29T20:13:36.295Z,8.00
2018-09-29T20:16:05.290Z,8.00
2018-09-29T20:18:33.768Z,8.00
2018-09-29T20:21:02.229Z,8.00
2018-09-29T20:23:30.721Z,8.00
2018-09-29T20:25:59.182Z,7.90
2018-09-29T20:28:27.658Z,7.90
2018-09-29T20:30:56.133Z,7.80
2018-09-29T20:33:24.618Z,7.80
2018-09-29T20:35:53.069Z,7.80
2018-09-29T20:38:21.563Z,7.80
2018-09-29T20:40:50.034Z,7.80
2018-09-29T20:43:18.514Z,7.80
2018-09-29T20:45:46.970Z,7.80
2018-09-29T20:48:15.458Z,7.70
2018-09-29T20:50:43.948Z,7.70
2018-09-29T20:53:12.422Z,7.70
2018-09-29T20:55:40.868Z,7.70
2018-09-29T20:58:09.311Z,7.60
2018-09-29T21:00:38.172Z,7.60
2018-09-29T21:03:06.871Z,7.60
2018-09-29T21:05:35.351Z,7.60
2018-09-29T21:08:04.006Z,7.60
2018-09-29T21:10:32.482Z,7.60
2018-09-29T21:13:00.974Z,7.60
2018-09-29T21:15:29.613Z,7.60
2018-09-29T21:17:58.063Z,7.60
2018-09-29T21:20:26.553Z,7.50
2018-09-29T21:22:55.003Z,7.50
2018-09-29T21:25:23.503Z,7.50
2018-09-29T21:27:51.954Z,7.40
2018-09-29T21:30:20.471Z,7.30
2018-09-29T21:32:48.922Z,7.30
2018-09-29T21:35:17.402Z,7.20
2018-09-29T21:37:45.994Z,7.20
2018-09-29T21:40:14.509Z,7.10
2018-09-29T21:42:43.068Z,7.10
2018-09-29T21:45:11.555Z,7.00
2018-09-29T21:47:40.015Z,7.00
2018-09-29T21:50:08.854Z,7.00
2018-09-29T21:52:37.319Z,7.00
2018-09-29T21:55:05.792Z,7.00
2018-09-29T21:57:34.247Z,7.00
2018-09-29T22:00:02.695Z,7.00
2018-09-29T22:02:31.180Z,7.00
2018-09-29T22:04:59.626Z,6.90
2018-09-29T22:07:28.090Z,7.00
2018-09-29T22:09:56.541Z,6.90
2018-09-29T22:12:25.219Z,6.90
2018-09-29T22:14:53.674Z,6.80
2018-09-29T22:17:22.194Z,6.80
2018-09-29T22:19:50.655Z,6.80
2018-09-29T22:22:19.159Z,6.80
2018-09-29T22:24:47.636Z,6.70
2018-09-29T22:27:16.125Z,6.70
2018-09-29T22:29:44.585Z,6.70
2018-09-29T22:32:13.067Z,6.70
2018-09-29T22:34:41.519Z,6.70
2018-09-29T22:37:09.990Z,6.60
2018-09-29T22:39:38.459Z,6.50
2018-09-29T22:42:06.966Z,6.50
2018-09-29T22:44:35.428Z,6.50
2018-09-29T22:47:03.878Z,6.50
2018-09-29T22:49:32.611Z,6.50
2018-09-29T22:52:01.062Z,6.50
2018-09-29T22:54:29.526Z,6.50
2018-09-29T22:56:57.980Z,6.50
2018-09-29T22:59:27.431Z,6.50
2018-09-29T23:01:55.940Z,6.40
2018-09-29T23:04:24.411Z,6.50
2018-09-29T23:06:52.858Z,6.40
2018-09-29T23:09:21.380Z,6.40
2018-09-29T23:11:50.180Z,6.30
2018-09-29T23:14:18.713Z,6.30
2018-09-29T23:16:47.182Z,6.20
2018-09-29T23:19:15.773Z,6.10
2018-09-29T23:21:44.349Z,6.10
2018-09-29T23:24:12.924Z,6.10
2018-09-29T23:26:41.406Z,6.10
2018-09-29T23:29:09.909Z,6.00
2018-09-29T23:31:38.359Z,6.00
2018-09-29T23:34:07.134Z,5.90
2018-09-29T23:36:50.075Z,5.90
2018-09-29T23:39:18.863Z,5.80
2018-09-29T23:41:47.365Z,5.80
2018-09-29T23:44:15.839Z,5.80
2018-09-29T23:46:44.311Z,5.70
2018-09-29T23:49:12.765Z,5.70
2018-09-29T23:51:41.274Z,5.80
2018-09-29T23:54:09.741Z,5.80
2018-09-29T23:56:38.263Z,5.80
2018-09-29T23:59:06.982Z,5.80
